Aviation Digital Data Service (ADDS)

Output produced by METARs form (1342 UTC 24 August 2016)
found at http://aviationweather.gov/adds/metars/
 
KLEB 241137Z 2412/2512 VRB03KT 2SM BR BKN001 
     FM241230 24005KT P6SM SKC 
     FM250930 VRB03KT 1/2SM FG BKN001